Time;durP1;ratioP1;P1;durP2;ratioP2;P2;SDS_P1;SDS_P2;PMS_P1;PMS_P2;Temp;Humidity;BMP_temperature;BMP_pressure;BME280_temperature;BME280_humidity;BME280_pressure;Samples;Min_cycle;Max_cycle;Signal;HPM_P1;HPM_P2
2024/01/04 00:01:28;;;;;;;127.75;56.42;;;16.90;70.90;;;;;;4899987;28;91187;-83
2024/01/04 00:03:54;;;;;;;128.70;56.65;;;16.90;70.90;;;;;;4901013;28;90648;-83
2024/01/04 00:06:20;;;;;;;125.30;56.22;;;16.90;70.90;;;;;;4896708;28;89728;-81
2024/01/04 00:08:46;;;;;;;127.60;56.45;;;16.80;70.80;;;;;;4911419;28;93310;-83
2024/01/04 00:11:12;;;;;;;127.28;56.42;;;16.80;71.60;;;;;;4902937;28;92421;-83
2024/01/04 00:13:38;;;;;;;126.68;56.03;;;16.80;70.80;;;;;;4898700;28;89274;-82
2024/01/04 00:16:09;;;;;;;126.63;56.25;;;16.80;70.90;;;;;;4894237;28;89080;-83
2024/01/04 00:18:35;;;;;;;126.15;56.47;;;16.80;70.90;;;;;;4900122;28;89946;-82
2024/01/04 00:21:02;;;;;;;124.57;56.08;;;16.80;70.80;;;;;;4896349;28;89332;-81
2024/01/04 00:23:28;;;;;;;125.80;55.80;;;16.80;71.00;;;;;;4899775;28;90720;-83
2024/01/04 00:25:54;;;;;;;125.45;56.42;;;16.80;70.90;;;;;;4900239;28;89549;-85
2024/01/04 00:28:20;;;;;;;127.35;55.92;;;16.80;71.00;;;;;;4900895;28;92284;-84
2024/01/04 00:30:45;;;;;;;125.55;56.15;;;16.80;71.00;;;;;;4901486;28;89800;-84
2024/01/04 00:33:11;;;;;;;126.93;56.75;;;16.70;70.90;;;;;;4897558;28;90645;-84
2024/01/04 00:35:37;;;;;;;126.68;55.80;;;16.70;70.90;;;;;;4897886;28;89819;-87
2024/01/04 00:38:02;;;;;;;124.38;56.05;;;16.70;71.10;;;;;;4902324;28;91137;-85
2024/01/04 00:40:28;;;;;;;127.25;56.13;;;16.70;71.00;;;;;;4903423;28;92273;-84
2024/01/04 00:42:54;;;;;;;125.47;56.40;;;16.70;71.00;;;;;;4902051;28;89604;-84
2024/01/04 00:45:20;;;;;;;125.50;56.15;;;16.70;71.10;;;;;;4901363;28;89909;-84
2024/01/04 00:47:45;;;;;;;127.43;56.15;;;16.70;71.10;;;;;;4901800;28;90275;-84
2024/01/04 00:50:11;;;;;;;125.18;56.13;;;16.70;71.00;;;;;;4905504;28;90629;-84
2024/01/04 00:52:37;;;;;;;126.05;56.30;;;16.70;71.10;;;;;;4906485;28;89544;-86
2024/01/04 00:55:03;;;;;;;124.63;55.95;;;16.70;71.10;;;;;;4899713;28;94295;-84
2024/01/04 00:57:28;;;;;;;124.70;55.90;;;16.70;71.10;;;;;;4904694;28;91740;-84
2024/01/04 00:59:54;;;;;;;125.68;56.15;;;16.70;71.10;;;;;;4904050;28;89144;-83
2024/01/04 01:02:19;;;;;;;126.10;56.03;;;16.60;71.10;;;;;;4909270;28;91129;-84
2024/01/04 01:04:45;;;;;;;123.95;55.42;;;16.60;71.10;;;;;;4908131;28;89796;-81
2024/01/04 01:07:11;;;;;;;124.85;55.95;;;16.60;71.10;;;;;;4906659;28;90721;-84
2024/01/04 01:09:37;;;;;;;124.15;55.88;;;16.60;71.20;;;;;;4908785;28;89416;-83
2024/01/04 01:12:03;;;;;;;124.95;55.55;;;16.60;71.20;;;;;;4923870;28;90237;-84
2024/01/04 01:14:28;;;;;;;124.93;55.72;;;16.60;71.20;;;;;;4922561;28;89197;-83
2024/01/04 01:16:54;;;;;;;124.43;55.88;;;16.60;71.30;;;;;;4933400;28;89781;-82
2024/01/04 01:19:19;;;;;;;124.75;56.08;;;16.60;71.30;;;;;;4928456;28;89358;-82
2024/01/04 01:21:45;;;;;;;124.88;56.38;;;16.60;71.20;;;;;;4928447;28;89254;-82
2024/01/04 01:24:11;;;;;;;124.03;55.60;;;16.60;71.30;;;;;;4937903;28;89566;-84
2024/01/04 01:26:36;;;;;;;124.43;55.83;;;16.60;71.30;;;;;;4911022;28;91996;-83
2024/01/04 01:29:02;;;;;;;124.75;55.88;;;16.50;71.20;;;;;;4909829;28;91252;-83
2024/01/04 01:31:28;;;;;;;124.50;55.80;;;16.50;71.30;;;;;;4905584;28;89351;-83
2024/01/04 01:33:53;;;;;;;123.95;55.78;;;16.50;71.40;;;;;;4911017;28;89159;-84
2024/01/04 01:36:19;;;;;;;124.20;55.67;;;16.50;71.40;;;;;;4908125;28;90363;-84
2024/01/04 01:38:44;;;;;;;123.82;55.90;;;16.50;71.40;;;;;;4908911;28;90384;-85
2024/01/04 01:41:10;;;;;;;124.32;55.63;;;16.50;71.40;;;;;;4922925;28;91889;-86
2024/01/04 01:43:36;;;;;;;125.13;55.50;;;16.50;71.50;;;;;;4906686;28;90477;-86
2024/01/04 01:46:02;;;;;;;125.25;56.13;;;16.50;71.40;;;;;;4908938;28;91234;-86
2024/01/04 01:48:28;;;;;;;124.05;55.42;;;16.40;71.40;;;;;;4910291;28;89449;-86
2024/01/04 01:50:54;;;;;;;125.47;55.85;;;16.50;71.70;;;;;;4906983;28;89538;-86
2024/01/04 01:53:21;;;;;;;124.03;55.65;;;16.40;71.50;;;;;;4902934;28;88381;-85
2024/01/04 01:55:47;;;;;;;123.93;55.83;;;16.40;71.40;;;;;;4905994;28;89753;-85
2024/01/04 01:58:13;;;;;;;123.65;55.80;;;16.40;71.40;;;;;;4906697;28;89282;-86
2024/01/04 02:00:39;;;;;;;123.53;55.63;;;16.50;71.50;;;;;;4919977;28;91521;-84
2024/01/04 02:03:05;;;;;;;122.88;55.55;;;16.40;71.40;;;;;;4905014;28;89537;-85
2024/01/04 02:05:31;;;;;;;125.20;55.72;;;16.40;71.40;;;;;;4904936;28;90075;-84
2024/01/04 02:07:57;;;;;;;123.55;55.58;;;16.40;71.50;;;;;;4906248;28;90877;-85
2024/01/04 02:10:23;;;;;;;125.97;55.90;;;16.40;71.50;;;;;;4905125;28;89304;-85
2024/01/04 02:12:48;;;;;;;123.85;55.55;;;16.40;72.20;;;;;;4905374;28;89130;-85
2024/01/04 02:15:14;;;;;;;123.07;55.72;;;16.40;71.50;;;;;;4907115;28;89879;-83
2024/01/04 02:17:40;;;;;;;123.93;55.60;;;16.40;71.50;;;;;;4906566;28;89311;-82
2024/01/04 02:20:07;;;;;;;124.03;55.58;;;16.40;71.50;;;;;;4906407;28;89466;-85
2024/01/04 02:22:35;;;;;;;124.70;55.78;;;16.40;71.50;;;;;;4905716;28;89122;-84
2024/01/04 02:25:00;;;;;;;124.47;55.65;;;16.30;71.40;;;;;;4906735;28;91903;-82
2024/01/04 02:27:26;;;;;;;124.53;55.55;;;16.30;71.50;;;;;;4907296;28;90251;-84
2024/01/04 02:29:52;;;;;;;124.97;55.83;;;16.30;71.60;;;;;;4901958;28;90208;-87
2024/01/04 02:32:17;;;;;;;123.20;55.72;;;16.30;71.60;;;;;;4904146;28;88878;-84
2024/01/04 02:34:43;;;;;;;122.88;55.38;;;16.30;71.60;;;;;;4908186;28;89365;-84
2024/01/04 02:37:09;;;;;;;123.25;55.47;;;16.30;71.60;;;;;;4905872;28;89695;-85
2024/01/04 02:39:34;;;;;;;124.05;55.35;;;16.30;71.60;;;;;;4905855;28;90751;-84
2024/01/04 02:42:00;;;;;;;125.05;55.60;;;16.30;71.60;;;;;;4905356;28;88448;-85
2024/01/04 02:44:26;;;;;;;124.45;55.63;;;16.30;71.60;;;;;;4908824;28;89714;-82
2024/01/04 02:46:51;;;;;;;124.82;55.40;;;16.30;71.60;;;;;;4909554;28;89323;-84
2024/01/04 02:49:17;;;;;;;124.47;55.70;;;16.30;71.70;;;;;;4903111;28;90024;-84
2024/01/04 02:51:42;;;;;;;123.75;55.42;;;16.30;71.70;;;;;;4902331;28;89170;-84
2024/01/04 02:54:08;;;;;;;124.32;55.72;;;16.30;71.70;;;;;;4906187;28;91854;-83
2024/01/04 02:56:34;;;;;;;124.55;55.38;;;16.30;71.60;;;;;;4902239;28;89902;-84
2024/01/04 02:59:01;;;;;;;124.35;55.35;;;16.30;71.60;;;;;;4911055;28;89943;-85
2024/01/04 03:01:26;;;;;;;126.07;55.88;;;16.30;71.70;;;;;;4910610;28;89557;-85
2024/01/04 03:03:55;;;;;;;121.80;55.45;;;16.30;71.70;;;;;;4905934;28;90122;-84
2024/01/04 03:06:24;;;;;;;123.90;55.17;;;16.30;71.80;;;;;;4901362;28;89929;-82
2024/01/04 03:08:51;;;;;;;123.85;55.47;;;16.30;71.70;;;;;;4915020;28;90005;-83
2024/01/04 03:11:17;;;;;;;123.57;55.60;;;16.20;71.70;;;;;;4918234;28;89549;-83
2024/01/04 03:13:43;;;;;;;125.00;55.65;;;16.20;71.70;;;;;;4911544;28;91601;-82
2024/01/04 03:16:08;;;;;;;123.40;55.78;;;16.20;71.70;;;;;;4909160;28;89791;-83
2024/01/04 03:18:34;;;;;;;122.35;55.30;;;16.20;71.80;;;;;;4910305;28;89059;-83
2024/01/04 03:21:02;;;;;;;122.85;55.30;;;16.20;71.80;;;;;;4905962;28;89173;-84
2024/01/04 03:23:28;;;;;;;121.85;55.38;;;16.20;71.70;;;;;;4924380;28;93219;-84
2024/01/04 03:25:54;;;;;;;124.00;55.70;;;16.20;71.80;;;;;;4906800;28;89526;-84
2024/01/04 03:28:20;;;;;;;123.28;55.78;;;16.20;71.80;;;;;;4910829;28;89328;-82
2024/01/04 03:30:46;;;;;;;123.45;55.15;;;16.20;71.90;;;;;;4903211;28;88356;-84
2024/01/04 03:33:12;;;;;;;123.50;55.33;;;16.20;72.00;;;;;;4907374;28;89370;-83
2024/01/04 03:35:37;;;;;;;122.90;55.45;;;16.10;71.90;;;;;;4902651;28;91504;-82
2024/01/04 03:38:03;;;;;;;123.22;55.70;;;16.10;72.00;;;;;;4907840;28;90508;-82
2024/01/04 03:40:29;;;;;;;122.47;55.00;;;16.10;71.90;;;;;;4906007;28;89272;-83
2024/01/04 03:42:54;;;;;;;123.10;55.25;;;16.10;72.10;;;;;;4910282;28;90569;-85
2024/01/04 03:45:21;;;;;;;122.65;54.95;;;16.10;71.90;;;;;;4910966;28;89850;-84
2024/01/04 03:47:47;;;;;;;122.80;55.20;;;16.10;71.90;;;;;;4901768;28;89624;-84
2024/01/04 03:50:13;;;;;;;125.50;55.80;;;16.10;72.00;;;;;;4906745;28;89398;-84
2024/01/04 03:52:39;;;;;;;123.05;54.97;;;16.10;72.00;;;;;;4905277;28;89778;-82
2024/01/04 03:55:05;;;;;;;123.70;55.67;;;16.10;72.10;;;;;;4906360;28;89386;-84
2024/01/04 03:57:30;;;;;;;122.93;55.42;;;16.10;72.10;;;;;;4904924;28;89405;-82
2024/01/04 03:59:56;;;;;;;123.18;55.40;;;16.10;72.10;;;;;;4905547;28;89012;-83
2024/01/04 04:02:22;;;;;;;124.00;55.30;;;16.10;72.10;;;;;;4905663;28;92097;-83
2024/01/04 04:04:47;;;;;;;123.43;55.25;;;16.10;72.20;;;;;;4907644;28;89792;-84
2024/01/04 04:07:13;;;;;;;122.80;55.67;;;16.10;72.10;;;;;;4910790;28;89403;-81
2024/01/04 04:09:39;;;;;;;121.95;55.20;;;16.00;72.00;;;;;;4917795;28;89048;-80
2024/01/04 04:12:05;;;;;;;123.68;55.42;;;16.10;72.10;;;;;;4927669;28;90439;-83
2024/01/04 04:14:33;;;;;;;124.32;55.65;;;16.10;72.10;;;;;;4921913;28;90029;-82
2024/01/04 04:17:00;;;;;;;122.60;54.97;;;16.00;72.10;;;;;;4923290;28;88976;-83
2024/01/04 04:19:27;;;;;;;123.53;55.72;;;16.10;72.20;;;;;;4902229;28;88584;-81
2024/01/04 04:21:52;;;;;;;122.38;55.47;;;16.00;72.10;;;;;;4905517;28;89200;-83
2024/01/04 04:24:18;;;;;;;123.60;55.88;;;16.10;72.30;;;;;;4907772;28;89527;-85
2024/01/04 04:26:44;;;;;;;123.63;55.75;;;16.00;72.20;;;;;;4901597;28;90100;-86
2024/01/04 04:29:09;;;;;;;122.55;55.33;;;16.00;72.20;;;;;;4906561;28;90041;-85
2024/01/04 04:31:35;;;;;;;121.68;55.28;;;16.00;72.20;;;;;;4910239;28;90133;-82
2024/01/04 04:34:01;;;;;;;123.00;55.05;;;16.00;72.20;;;;;;4912821;28;89903;-84
2024/01/04 04:36:26;;;;;;;122.43;55.40;;;16.00;72.20;;;;;;4910607;28;89490;-84
2024/01/04 04:38:52;;;;;;;123.25;55.72;;;16.00;72.30;;;;;;4912350;28;89186;-85
2024/01/04 04:41:18;;;;;;;122.35;55.05;;;16.00;72.30;;;;;;4908567;28;89203;-85
2024/01/04 04:43:43;;;;;;;121.43;54.97;;;16.00;72.20;;;;;;4913726;28;90361;-84
2024/01/04 04:46:10;;;;;;;122.30;55.17;;;16.00;72.30;;;;;;4909518;28;90905;-85
2024/01/04 04:48:39;;;;;;;122.40;55.47;;;16.00;72.30;;;;;;4915349;28;88933;-85
2024/01/04 04:51:05;;;;;;;122.93;54.95;;;16.00;72.40;;;;;;4915156;28;90906;-85
2024/01/04 04:53:30;;;;;;;122.65;55.15;;;16.00;72.30;;;;;;4911986;28;90545;-82
2024/01/04 04:55:56;;;;;;;122.55;55.22;;;16.00;72.30;;;;;;4911583;28;89292;-83
2024/01/04 04:58:22;;;;;;;121.22;55.00;;;16.00;72.30;;;;;;4908919;28;89508;-82
2024/01/04 05:00:47;;;;;;;123.70;55.33;;;16.00;72.40;;;;;;4913491;28;90698;-83
2024/01/04 05:03:13;;;;;;;122.10;55.33;;;16.00;72.50;;;;;;4911610;28;89794;-82
2024/01/04 05:05:39;;;;;;;124.78;55.90;;;16.00;72.50;;;;;;4912419;28;89925;-83
2024/01/04 05:08:05;;;;;;;124.28;55.83;;;16.00;72.60;;;;;;4911422;28;89227;-84
2024/01/04 05:10:31;;;;;;;126.13;55.67;;;16.00;72.50;;;;;;4911414;28;92182;-82
2024/01/04 05:12:58;;;;;;;124.00;54.95;;;16.00;72.50;;;;;;4910022;28;89632;-82
2024/01/04 05:15:24;;;;;;;125.97;55.72;;;15.90;72.50;;;;;;4908243;28;90557;-84
2024/01/04 05:17:49;;;;;;;123.70;55.53;;;15.90;72.50;;;;;;4917237;28;89100;-85
2024/01/04 05:20:15;;;;;;;122.53;55.45;;;15.90;72.70;;;;;;4911120;28;91028;-85
2024/01/04 05:22:41;;;;;;;122.22;55.08;;;16.00;72.70;;;;;;4912523;28;91133;-84
2024/01/04 05:25:07;;;;;;;124.93;55.60;;;15.90;72.50;;;;;;4914249;28;90383;-85
2024/01/04 05:27:33;;;;;;;122.70;55.25;;;15.90;72.60;;;;;;4929859;28;89211;-84
2024/01/04 05:29:59;;;;;;;123.68;55.25;;;15.90;72.60;;;;;;4916198;28;91048;-88
2024/01/04 05:32:24;;;;;;;122.97;55.65;;;15.90;72.80;;;;;;4914262;28;90719;-83
2024/01/04 05:34:50;;;;;;;126.05;55.47;;;15.90;72.60;;;;;;4907597;28;89793;-84
2024/01/04 05:37:16;;;;;;;122.88;55.38;;;15.90;72.60;;;;;;4925516;28;90340;-83
2024/01/04 05:39:42;;;;;;;122.75;55.25;;;15.90;72.60;;;;;;4912204;28;92375;-83
2024/01/04 05:42:08;;;;;;;122.75;55.55;;;15.90;72.80;;;;;;4908489;28;90946;-85
2024/01/04 05:44:33;;;;;;;123.72;55.35;;;15.90;72.70;;;;;;4902877;28;89170;-84
2024/01/04 05:46:59;;;;;;;123.28;55.65;;;15.90;72.80;;;;;;4905252;28;90283;-82
2024/01/04 05:49:25;;;;;;;124.70;55.38;;;15.90;72.80;;;;;;4904478;28;91121;-83
2024/01/04 05:51:50;;;;;;;122.15;55.10;;;15.90;72.70;;;;;;4903458;28;90922;-84
2024/01/04 05:54:16;;;;;;;121.45;54.97;;;15.90;72.90;;;;;;4896231;28;89690;-82
2024/01/04 05:56:44;;;;;;;124.40;55.40;;;15.90;72.90;;;;;;4899609;28;89470;-82
2024/01/04 05:59:10;;;;;;;122.35;55.15;;;15.90;72.80;;;;;;4903641;28;90410;-83
2024/01/04 06:01:36;;;;;;;125.25;55.65;;;15.80;72.80;;;;;;4901343;28;89338;-83
2024/01/04 06:04:02;;;;;;;126.18;55.60;;;15.90;72.80;;;;;;4905305;28;90563;-83
2024/01/04 06:06:28;;;;;;;122.30;55.70;;;15.90;72.90;;;;;;4908364;28;89005;-83
2024/01/04 06:08:53;;;;;;;123.53;55.28;;;15.90;72.90;;;;;;4909023;28;89195;-83
2024/01/04 06:11:19;;;;;;;121.28;54.83;;;15.80;72.80;;;;;;4905551;28;90386;-83
2024/01/04 06:13:45;;;;;;;122.57;55.25;;;15.90;72.90;;;;;;4906375;28;89130;-81
2024/01/04 06:16:11;;;;;;;121.55;54.78;;;15.80;72.90;;;;;;4908685;28;90309;-80
2024/01/04 06:18:37;;;;;;;122.03;55.20;;;15.90;72.90;;;;;;4909555;28;91398;-87
2024/01/04 06:21:05;;;;;;;122.53;55.55;;;15.90;73.00;;;;;;4911774;28;89230;-82
2024/01/04 06:23:31;;;;;;;124.78;55.40;;;15.80;73.00;;;;;;4909292;28;88987;-82
2024/01/04 06:25:57;;;;;;;122.53;54.58;;;15.80;73.00;;;;;;4903365;28;91266;-83
2024/01/04 06:28:23;;;;;;;127.97;55.47;;;15.80;72.90;;;;;;4905792;28;92553;-83
2024/01/04 06:30:49;;;;;;;122.80;55.13;;;15.80;73.00;;;;;;4908064;28;91178;-83
2024/01/04 06:33:16;;;;;;;124.78;55.80;;;15.80;73.00;;;;;;4904692;28;89862;-83
2024/01/04 06:35:42;;;;;;;126.13;55.67;;;15.80;72.90;;;;;;4907184;28;90164;-85
2024/01/04 06:38:08;;;;;;;124.45;55.03;;;15.80;73.00;;;;;;4897397;28;89772;-87
2024/01/04 06:40:38;;;;;;;128.35;54.92;;;15.70;73.10;;;;;;4903759;28;89904;-86
2024/01/04 06:43:08;;;;;;;127.47;55.28;;;15.70;73.10;;;;;;4902004;28;89298;-83
2024/01/04 06:45:37;;;;;;;123.20;54.92;;;15.70;73.10;;;;;;4905190;28;90777;-84
2024/01/04 06:48:04;;;;;;;126.85;55.35;;;15.80;73.30;;;;;;4902142;28;89852;-83
2024/01/04 06:50:30;;;;;;;133.15;55.60;;;15.70;73.20;;;;;;4905601;28;89916;-85
2024/01/04 06:52:56;;;;;;;125.60;55.65;;;15.70;73.50;;;;;;4904164;28;91501;-84
2024/01/04 06:55:23;;;;;;;127.28;55.13;;;15.70;73.70;;;;;;4916721;28;89393;-85
2024/01/04 06:57:48;;;;;;;123.10;55.28;;;15.70;73.90;;;;;;4902602;28;93558;-85
2024/01/04 07:00:15;;;;;;;124.90;55.30;;;15.70;74.00;;;;;;4921114;28;91837;-83
2024/01/04 07:02:41;;;;;;;133.73;55.17;;;15.70;74.10;;;;;;4906770;28;89471;-84
2024/01/04 07:05:11;;;;;;;125.53;55.00;;;15.70;74.20;;;;;;4913457;28;89517;-80
2024/01/04 07:07:38;;;;;;;126.53;55.03;;;15.70;74.20;;;;;;4926875;28;92721;-79
2024/01/04 07:10:04;;;;;;;125.03;55.33;;;15.70;74.00;;;;;;4924614;28;89260;-79
2024/01/04 07:12:30;;;;;;;132.10;55.53;;;15.70;74.00;;;;;;4927598;28;88980;-80
2024/01/04 07:14:55;;;;;;;122.93;54.85;;;15.70;74.00;;;;;;4917883;28;89474;-83
2024/01/04 07:17:22;;;;;;;127.40;54.65;;;15.60;74.00;;;;;;4908821;28;90412;-86
2024/01/04 07:19:48;;;;;;;129.15;55.15;;;15.60;74.10;;;;;;4901461;28;90950;-81
2024/01/04 07:22:17;;;;;;;124.95;55.53;;;15.60;74.10;;;;;;4905498;28;89087;-86
2024/01/04 07:24:43;;;;;;;123.45;55.13;;;15.60;74.10;;;;;;4906346;28;89104;-83
2024/01/04 07:27:09;;;;;;;126.07;54.95;;;15.60;74.10;;;;;;4918533;28;92476;-83
2024/01/04 07:29:34;;;;;;;124.20;55.15;;;15.60;74.10;;;;;;4904133;28;89500;-83
2024/01/04 07:32:00;;;;;;;127.55;55.45;;;15.60;74.20;;;;;;4897656;28;89154;-84
2024/01/04 07:34:27;;;;;;;123.82;55.15;;;15.60;74.10;;;;;;4903990;28;88525;-83
2024/01/04 07:36:52;;;;;;;122.28;55.15;;;15.60;74.10;;;;;;4901561;28;90100;-84
2024/01/04 07:39:18;;;;;;;121.68;54.83;;;15.60;74.10;;;;;;4905394;28;92925;-82
2024/01/04 07:41:44;;;;;;;124.88;55.13;;;15.50;74.10;;;;;;4900410;28;89969;-84
2024/01/04 07:44:10;;;;;;;125.10;55.65;;;15.50;74.20;;;;;;4902975;28;89251;-82
2024/01/04 07:46:36;;;;;;;125.32;55.95;;;15.50;74.00;;;;;;4903675;28;89878;-83
2024/01/04 07:49:07;;;;;;;123.75;55.40;;;15.50;74.20;;;;;;4904907;28;90089;-83
2024/01/04 07:51:33;;;;;;;123.78;55.00;;;15.50;74.20;;;;;;4903588;28;89425;-83
2024/01/04 07:53:58;;;;;;;124.60;55.08;;;15.50;74.30;;;;;;4907854;28;89741;-81
2024/01/04 07:56:25;;;;;;;123.47;55.15;;;15.50;74.40;;;;;;4905619;28;91264;-80
2024/01/04 07:58:50;;;;;;;124.90;55.13;;;15.50;74.40;;;;;;4903282;28;89312;-82
2024/01/04 08:01:17;;;;;;;124.93;54.97;;;15.50;74.30;;;;;;4908312;28;88943;-84
2024/01/04 08:03:43;;;;;;;126.82;55.33;;;15.50;74.40;;;;;;4907926;28;89509;-82
2024/01/04 08:06:09;;;;;;;125.00;55.70;;;15.50;74.40;;;;;;4906772;28;92810;-80
2024/01/04 08:08:35;;;;;;;126.13;54.97;;;15.50;74.30;;;;;;4903696;28;92295;-84
2024/01/04 08:11:01;;;;;;;126.60;55.22;;;15.50;74.30;;;;;;4903947;28;89192;-83
2024/01/04 08:13:27;;;;;;;123.65;55.25;;;15.50;74.40;;;;;;4907996;28;89352;-84
2024/01/04 08:15:52;;;;;;;123.03;55.00;;;15.50;74.40;;;;;;4904829;28;92870;-83
2024/01/04 08:18:22;;;;;;;124.47;55.08;;;15.50;74.30;;;;;;4908406;28;92994;-83
2024/01/04 08:20:48;;;;;;;124.90;55.20;;;15.40;74.30;;;;;;4908165;28;89489;-87
2024/01/04 08:23:14;;;;;;;127.50;55.15;;;15.40;74.30;;;;;;4911225;28;88429;-84
2024/01/04 08:25:40;;;;;;;124.85;54.85;;;15.40;74.40;;;;;;4909131;28;93394;-83
2024/01/04 08:28:08;;;;;;;125.15;55.55;;;15.40;74.40;;;;;;4905782;28;89271;-86
2024/01/04 08:30:34;;;;;;;124.32;55.28;;;15.40;74.30;;;;;;4903463;28;92495;-85
2024/01/04 08:33:00;;;;;;;125.72;55.25;;;15.40;74.30;;;;;;4906108;28;90051;-85
2024/01/04 08:35:25;;;;;;;123.32;55.28;;;15.40;74.30;;;;;;4910511;28;91964;-86
2024/01/04 08:37:51;;;;;;;126.82;55.20;;;15.40;75.00;;;;;;4908371;28;89182;-82
2024/01/04 08:40:17;;;;;;;125.20;55.30;;;15.40;74.30;;;;;;4905334;28;91932;-81
2024/01/04 08:42:42;;;;;;;129.93;55.35;;;15.60;74.60;;;;;;4900215;28;89385;-84
2024/01/04 08:45:10;;;;;;;129.48;55.42;;;15.70;74.30;;;;;;4902328;28;92265;-84
2024/01/04 08:47:36;;;;;;;127.68;55.50;;;15.70;73.90;;;;;;4904626;28;92865;-83
2024/01/04 08:50:02;;;;;;;126.53;55.03;;;15.80;73.60;;;;;;4900459;28;88980;-84
2024/01/04 08:52:28;;;;;;;127.07;55.53;;;15.80;73.20;;;;;;4906524;28;89482;-84
2024/01/04 08:54:54;;;;;;;125.53;55.60;;;15.80;73.10;;;;;;4906469;28;90294;-81
2024/01/04 08:57:19;;;;;;;127.20;55.65;;;15.80;73.40;;;;;;4904207;28;93931;-87
2024/01/04 08:59:45;;;;;;;125.60;55.70;;;15.80;73.20;;;;;;4908924;28;89048;-79
2024/01/04 09:02:11;;;;;;;130.25;55.53;;;15.90;73.60;;;;;;4905934;28;89177;-85
2024/01/04 09:04:36;;;;;;;130.68;55.63;;;15.90;73.60;;;;;;4902059;28;90054;-84
2024/01/04 09:07:02;;;;;;;131.43;55.80;;;15.90;73.60;;;;;;4907696;28;89241;-87
2024/01/04 09:09:28;;;;;;;130.43;55.70;;;15.90;73.50;;;;;;4904920;28;89642;-85
2024/01/04 09:11:53;;;;;;;131.05;55.38;;;15.80;73.40;;;;;;4911725;28;88598;-83
2024/01/04 09:14:19;;;;;;;128.10;56.10;;;15.80;73.40;;;;;;4915677;28;90843;-83
2024/01/04 09:16:45;;;;;;;129.30;55.45;;;15.80;73.40;;;;;;4905438;28;89456;-84
2024/01/04 09:19:18;;;;;;;126.43;54.95;;;15.90;73.40;;;;;;4900286;28;89710;-83
2024/01/04 09:21:46;;;;;;;129.30;55.35;;;15.90;73.40;;;;;;4909251;28;88877;-84
2024/01/04 09:24:13;;;;;;;134.35;55.78;;;15.90;73.30;;;;;;4904301;28;89620;-86
2024/01/04 09:26:42;;;;;;;129.45;55.47;;;15.90;73.40;;;;;;4904594;28;90058;-85
2024/01/04 09:29:09;;;;;;;126.35;55.60;;;15.80;73.20;;;;;;4905611;28;89107;-83
2024/01/04 09:31:35;;;;;;;130.60;56.22;;;15.80;73.00;;;;;;4910286;28;89538;-87
2024/01/04 09:34:01;;;;;;;127.82;55.55;;;15.90;73.20;;;;;;4905910;28;90175;-83
2024/01/04 09:36:26;;;;;;;127.55;55.83;;;15.90;73.20;;;;;;4907858;28;90005;-85
2024/01/04 09:38:52;;;;;;;128.32;55.97;;;15.80;73.00;;;;;;4899702;28;89795;-86
2024/01/04 09:41:29;;;;;;;126.68;55.42;;;15.80;73.00;;;;;;4905204;28;89907;-83
2024/01/04 09:43:57;;;;;;;128.10;56.22;;;15.90;73.10;;;;;;4903652;28;90890;-85
2024/01/04 09:46:32;;;;;;;129.68;56.33;;;15.80;73.00;;;;;;4896134;28;90580;-87
2024/01/04 09:49:01;;;;;;;130.88;56.60;;;15.90;73.50;;;;;;4905427;28;92945;-88
2024/01/04 09:51:28;;;;;;;138.57;56.90;;;15.90;74.10;;;;;;4908767;28;89356;-87
2024/01/04 09:53:55;;;;;;;139.93;57.25;;;15.90;73.80;;;;;;4907829;28;89750;-83
2024/01/04 09:56:22;;;;;;;131.85;56.58;;;15.90;73.70;;;;;;4907762;28;89602;-88
2024/01/04 09:58:52;;;;;;;138.25;56.72;;;15.90;73.70;;;;;;4924787;28;90013;-84
2024/01/04 10:01:30;;;;;;;131.85;56.80;;;15.90;73.60;;;;;;4913159;28;89754;-87
2024/01/04 10:04:14;;;;;;;133.52;56.80;;;15.90;73.40;;;;;;4933824;28;94901;-80
2024/01/04 10:06:44;;;;;;;133.93;56.83;;;15.90;73.20;;;;;;4930584;28;90859;-80
2024/01/04 10:09:19;;;;;;;132.00;56.47;;;15.90;73.10;;;;;;4926260;28;90580;-81
2024/01/04 10:11:56;;;;;;;129.88;56.22;;;15.90;73.90;;;;;;4913332;28;90392;-83
2024/01/04 10:14:28;;;;;;;129.50;56.58;;;15.90;73.10;;;;;;4911008;28;92813;-87
2024/01/04 10:16:59;;;;;;;133.27;56.72;;;16.00;73.00;;;;;;4908824;28;90183;-85
2024/01/04 10:19:25;;;;;;;127.53;56.73;;;15.90;72.90;;;;;;4911042;28;89377;-84
2024/01/04 10:21:51;;;;;;;130.25;56.47;;;16.00;73.00;;;;;;4906175;28;89270;-84
2024/01/04 10:24:22;;;;;;;123.60;55.65;;;16.00;72.90;;;;;;4908439;28;93274;-88
2024/01/04 10:27:00;;;;;;;131.82;56.38;;;16.00;72.70;;;;;;4910419;28;92085;-87
2024/01/04 10:29:30;;;;;;;129.10;56.72;;;16.00;72.70;;;;;;4907648;28;90319;-85
2024/01/04 10:32:00;;;;;;;125.68;56.05;;;16.00;72.60;;;;;;4910355;28;89185;-87
2024/01/04 10:34:26;;;;;;;127.55;55.97;;;16.00;72.50;;;;;;4903969;28;92788;-86
2024/01/04 10:36:54;;;;;;;130.13;56.38;;;16.00;72.50;;;;;;4921385;28;93732;-88
2024/01/04 10:39:20;;;;;;;132.77;56.50;;;16.00;72.50;;;;;;4909959;28;89761;-86
2024/01/04 10:42:01;;;;;;;132.05;56.38;;;16.00;72.50;;;;;;4909817;28;89063;-86
2024/01/04 10:44:28;;;;;;;128.20;56.58;;;16.10;72.50;;;;;;4912442;28;89335;-86
2024/01/04 10:46:57;;;;;;;128.40;56.35;;;16.00;72.20;;;;;;4912682;28;89981;-87
2024/01/04 10:49:24;;;;;;;130.70;56.47;;;16.10;72.40;;;;;;4911878;28;89364;-87
2024/01/04 10:52:00;;;;;;;126.90;56.38;;;16.10;72.20;;;;;;4908581;28;88450;-84
2024/01/04 10:54:33;;;;;;;130.65;56.45;;;16.10;72.20;;;;;;4911242;28;91777;-87
2024/01/04 10:56:59;;;;;;;126.78;56.25;;;16.10;72.10;;;;;;4908971;28;89845;-88
2024/01/04 10:59:31;;;;;;;127.93;56.17;;;16.10;72.20;;;;;;4907312;28;90525;-85
2024/01/04 11:02:00;;;;;;;129.95;56.15;;;16.10;72.40;;;;;;4912612;28;89116;-84
2024/01/04 11:04:27;;;;;;;126.93;56.13;;;16.10;72.40;;;;;;4909616;28;91900;-85
2024/01/04 11:06:53;;;;;;;129.10;56.63;;;16.10;72.30;;;;;;4911695;28;89891;-82
2024/01/04 11:09:20;;;;;;;130.75;56.35;;;16.10;72.40;;;;;;4912054;28;89381;-86
2024/01/04 11:11:53;;;;;;;130.05;56.15;;;16.10;72.40;;;;;;4909708;28;89139;-84
2024/01/04 11:14:24;;;;;;;126.05;56.17;;;16.10;72.40;;;;;;4907363;28;93074;-85
2024/01/04 11:17:00;;;;;;;127.85;56.17;;;16.10;72.10;;;;;;4910518;28;88893;-86
2024/01/04 11:20:00;;;;;;;128.13;56.60;;;16.20;72.50;;;;;;4908107;28;89340;-87
2024/01/04 11:22:28;;;;;;;127.03;56.08;;;16.20;72.40;;;;;;4910320;28;89126;-83
2024/01/04 11:25:40;;;;;;;127.32;55.85;;;16.20;72.10;;;;;;4907880;28;91058;-81
2024/01/04 11:28:08;;;;;;;126.05;55.72;;;16.20;71.90;;;;;;4901251;28;90772;-82
2024/01/04 11:30:33;;;;;;;129.90;56.63;;;16.20;71.80;;;;;;4905656;28;89668;-84
2024/01/04 11:32:59;;;;;;;126.55;56.38;;;16.20;71.70;;;;;;4899920;28;90011;-86
2024/01/04 11:35:25;;;;;;;129.68;56.22;;;16.20;71.80;;;;;;4901112;28;92450;-80
2024/01/04 11:37:52;;;;;;;131.88;56.67;;;16.20;71.90;;;;;;4892477;28;92806;-80
2024/01/04 11:40:27;;;;;;;130.52;56.03;;;16.20;72.10;;;;;;4901885;28;91174;-76
2024/01/04 11:42:53;;;;;;;130.65;56.63;;;16.30;72.20;;;;;;4907830;28;88936;-79
2024/01/04 11:45:19;;;;;;;137.52;56.55;;;16.30;72.50;;;;;;4884944;23;94656;-35
2024/01/04 11:47:47;;;;;;;129.75;56.00;;;16.30;72.40;;;;;;4856697;28;89951;-37
2024/01/04 11:50:17;;;;;;;135.27;57.00;;;16.30;72.60;;;;;;4857794;28;91039;-37
2024/01/04 11:52:46;;;;;;;132.90;56.28;;;16.30;72.90;;;;;;4861525;23;90424;-85
2024/01/04 11:55:23;;;;;;;131.30;56.97;;;16.30;72.50;;;;;;4895149;28;92159;-81
2024/01/04 11:57:48;;;;;;;129.30;56.60;;;16.40;72.40;;;;;;4887783;28;89873;-79
2024/01/04 12:00:16;;;;;;;134.93;56.95;;;16.40;72.30;;;;;;4886829;28;90129;-81
2024/01/04 12:02:42;;;;;;;136.20;57.10;;;16.40;72.60;;;;;;4874641;28;95529;-79
2024/01/04 12:05:09;;;;;;;139.63;57.80;;;16.50;73.50;;;;;;4880043;28;89872;-85
2024/01/04 12:07:36;;;;;;;132.68;57.20;;;16.50;73.50;;;;;;4886315;28;89586;-84
2024/01/04 12:10:02;;;;;;;132.50;57.50;;;16.60;73.40;;;;;;4886060;28;91230;-83
2024/01/04 12:12:28;;;;;;;138.88;57.83;;;16.60;73.30;;;;;;4881625;28;89109;-85
2024/01/04 12:14:53;;;;;;;139.00;58.40;;;16.70;73.80;;;;;;4891215;28;91338;-85
2024/01/04 12:17:19;;;;;;;129.45;57.22;;;16.70;73.40;;;;;;4891713;28;92701;-85